sensor_id;sensor_type;location;lat;lon;timestamp;P1;durP1;ratioP1;P2;durP2;ratioP2
39918;SDS011;25589;51.552;13.424;2023-07-13T00:00:43;2.15;;;1.73;;
39918;SDS011;25589;51.552;13.424;2023-07-13T00:03:09;2.47;;;1.50;;
39918;SDS011;25589;51.552;13.424;2023-07-13T00:05:39;1.40;;;1.30;;
39918;SDS011;25589;51.552;13.424;2023-07-13T00:08:06;5.15;;;1.50;;
39918;SDS011;25589;51.552;13.424;2023-07-13T00:10:33;2.33;;;1.40;;
39918;SDS011;25589;51.552;13.424;2023-07-13T00:12:58;7.85;;;1.50;;
39918;SDS011;25589;51.552;13.424;2023-07-13T00:15:25;3.17;;;1.45;;
39918;SDS011;25589;51.552;13.424;2023-07-13T00:17:52;3.65;;;1.40;;
39918;SDS011;25589;51.552;13.424;2023-07-13T00:20:19;2.45;;;1.65;;
39918;SDS011;25589;51.552;13.424;2023-07-13T00:22:50;2.00;;;1.33;;
39918;SDS011;25589;51.552;13.424;2023-07-13T00:25:18;3.72;;;1.55;;
39918;SDS011;25589;51.552;13.424;2023-07-13T00:27:49;2.42;;;1.70;;
39918;SDS011;25589;51.552;13.424;2023-07-13T00:30:16;1.70;;;1.52;;
39918;SDS011;25589;51.552;13.424;2023-07-13T00:32:42;1.80;;;1.70;;
39918;SDS011;25589;51.552;13.424;2023-07-13T00:35:08;5.38;;;2.00;;
39918;SDS011;25589;51.552;13.424;2023-07-13T00:37:34;1.38;;;1.20;;
39918;SDS011;25589;51.552;13.424;2023-07-13T00:40:01;2.92;;;1.90;;
39918;SDS011;25589;51.552;13.424;2023-07-13T00:42:28;5.82;;;1.90;;
39918;SDS011;25589;51.552;13.424;2023-07-13T00:45:00;2.53;;;1.73;;
39918;SDS011;25589;51.552;13.424;2023-07-13T00:47:32;4.20;;;1.75;;
39918;SDS011;25589;51.552;13.424;2023-07-13T00:49:58;3.28;;;1.85;;
39918;SDS011;25589;51.552;13.424;2023-07-13T00:52:25;2.80;;;1.80;;
39918;SDS011;25589;51.552;13.424;2023-07-13T00:54:53;3.10;;;1.70;;
39918;SDS011;25589;51.552;13.424;2023-07-13T00:57:19;2.85;;;2.00;;
39918;SDS011;25589;51.552;13.424;2023-07-13T00:59:47;3.40;;;1.90;;
39918;SDS011;25589;51.552;13.424;2023-07-13T01:02:16;2.50;;;1.65;;
39918;SDS011;25589;51.552;13.424;2023-07-13T01:04:42;2.40;;;1.65;;
39918;SDS011;25589;51.552;13.424;2023-07-13T01:07:09;1.60;;;1.50;;
39918;SDS011;25589;51.552;13.424;2023-07-13T01:09:37;7.22;;;1.75;;
39918;SDS011;25589;51.552;13.424;2023-07-13T01:12:02;4.85;;;1.70;;
39918;SDS011;25589;51.552;13.424;2023-07-13T01:14:29;2.00;;;1.80;;
39918;SDS011;25589;51.552;13.424;2023-07-13T01:16:55;2.83;;;1.60;;
39918;SDS011;25589;51.552;13.424;2023-07-13T01:22:04;3.55;;;1.60;;
39918;SDS011;25589;51.552;13.424;2023-07-13T01:24:37;3.05;;;1.50;;
39918;SDS011;25589;51.552;13.424;2023-07-13T01:27:03;2.47;;;1.70;;
39918;SDS011;25589;51.552;13.424;2023-07-13T01:29:31;3.80;;;1.52;;
39918;SDS011;25589;51.552;13.424;2023-07-13T01:31:58;2.97;;;2.28;;
39918;SDS011;25589;51.552;13.424;2023-07-13T01:34:25;2.47;;;1.77;;
39918;SDS011;25589;51.552;13.424;2023-07-13T01:36:52;1.85;;;1.60;;
39918;SDS011;25589;51.552;13.424;2023-07-13T01:39:20;1.98;;;1.77;;
39918;SDS011;25589;51.552;13.424;2023-07-13T01:41:47;1.80;;;1.25;;
39918;SDS011;25589;51.552;13.424;2023-07-13T01:44:12;2.20;;;2.00;;
39918;SDS011;25589;51.552;13.424;2023-07-13T01:46:38;5.05;;;1.73;;
39918;SDS011;25589;51.552;13.424;2023-07-13T01:49:03;1.95;;;1.83;;
39918;SDS011;25589;51.552;13.424;2023-07-13T01:51:29;2.08;;;1.67;;
39918;SDS011;25589;51.552;13.424;2023-07-13T01:53:54;2.65;;;1.88;;
39918;SDS011;25589;51.552;13.424;2023-07-13T01:56:20;1.88;;;1.75;;
39918;SDS011;25589;51.552;13.424;2023-07-13T01:58:46;4.70;;;2.10;;
39918;SDS011;25589;51.552;13.424;2023-07-13T02:01:12;1.98;;;1.83;;
39918;SDS011;25589;51.552;13.424;2023-07-13T02:03:37;3.83;;;1.77;;
39918;SDS011;25589;51.552;13.424;2023-07-13T02:06:03;4.78;;;1.88;;
39918;SDS011;25589;51.552;13.424;2023-07-13T02:08:29;3.22;;;2.20;;
39918;SDS011;25589;51.552;13.424;2023-07-13T02:10:54;3.03;;;1.58;;
39918;SDS011;25589;51.552;13.424;2023-07-13T02:13:20;1.77;;;1.67;;
39918;SDS011;25589;51.552;13.424;2023-07-13T02:15:45;1.85;;;1.75;;
39918;SDS011;25589;51.552;13.424;2023-07-13T02:18:11;2.45;;;2.00;;
39918;SDS011;25589;51.552;13.424;2023-07-13T02:20:39;2.90;;;1.92;;
39918;SDS011;25589;51.552;13.424;2023-07-13T02:23:05;3.50;;;1.80;;
39918;SDS011;25589;51.552;13.424;2023-07-13T02:25:30;3.60;;;1.95;;
39918;SDS011;25589;51.552;13.424;2023-07-13T02:27:56;3.05;;;2.20;;
39918;SDS011;25589;51.552;13.424;2023-07-13T02:30:21;2.50;;;2.30;;
39918;SDS011;25589;51.552;13.424;2023-07-13T02:32:53;2.40;;;1.90;;
39918;SDS011;25589;51.552;13.424;2023-07-13T02:35:18;3.38;;;2.17;;
39918;SDS011;25589;51.552;13.424;2023-07-13T02:37:44;4.10;;;2.90;;
39918;SDS011;25589;51.552;13.424;2023-07-13T02:40:09;2.55;;;2.35;;
39918;SDS011;25589;51.552;13.424;2023-07-13T02:42:35;2.92;;;2.40;;
39918;SDS011;25589;51.552;13.424;2023-07-13T02:45:01;2.58;;;2.28;;
39918;SDS011;25589;51.552;13.424;2023-07-13T02:47:26;3.10;;;2.10;;
39918;SDS011;25589;51.552;13.424;2023-07-13T02:49:52;2.70;;;2.20;;
39918;SDS011;25589;51.552;13.424;2023-07-13T02:52:19;4.50;;;1.98;;
39918;SDS011;25589;51.552;13.424;2023-07-13T02:54:45;3.95;;;2.35;;
39918;SDS011;25589;51.552;13.424;2023-07-13T02:57:11;3.30;;;2.47;;
39918;SDS011;25589;51.552;13.424;2023-07-13T02:59:36;3.40;;;2.30;;
39918;SDS011;25589;51.552;13.424;2023-07-13T03:02:02;3.33;;;2.30;;
39918;SDS011;25589;51.552;13.424;2023-07-13T03:04:28;2.38;;;2.15;;
39918;SDS011;25589;51.552;13.424;2023-07-13T03:06:54;3.25;;;2.28;;
39918;SDS011;25589;51.552;13.424;2023-07-13T03:09:24;3.63;;;2.63;;
39918;SDS011;25589;51.552;13.424;2023-07-13T03:11:55;4.38;;;2.42;;
39918;SDS011;25589;51.552;13.424;2023-07-13T03:14:27;3.10;;;2.50;;
39918;SDS011;25589;51.552;13.424;2023-07-13T03:16:53;4.25;;;2.88;;
39918;SDS011;25589;51.552;13.424;2023-07-13T03:19:21;3.97;;;2.85;;
39918;SDS011;25589;51.552;13.424;2023-07-13T03:21:49;4.80;;;2.83;;
39918;SDS011;25589;51.552;13.424;2023-07-13T03:24:15;6.63;;;2.80;;
39918;SDS011;25589;51.552;13.424;2023-07-13T03:26:41;6.28;;;2.67;;
39918;SDS011;25589;51.552;13.424;2023-07-13T03:29:06;3.85;;;2.50;;
39918;SDS011;25589;51.552;13.424;2023-07-13T03:31:33;3.42;;;3.13;;
39918;SDS011;25589;51.552;13.424;2023-07-13T03:34:00;3.20;;;2.55;;
39918;SDS011;25589;51.552;13.424;2023-07-13T03:36:29;4.90;;;2.90;;
39918;SDS011;25589;51.552;13.424;2023-07-13T03:38:59;4.18;;;3.00;;
39918;SDS011;25589;51.552;13.424;2023-07-13T03:41:34;4.85;;;2.60;;
39918;SDS011;25589;51.552;13.424;2023-07-13T03:44:00;5.00;;;2.95;;
39918;SDS011;25589;51.552;13.424;2023-07-13T03:46:26;2.70;;;2.50;;
39918;SDS011;25589;51.552;13.424;2023-07-13T03:48:52;4.95;;;3.20;;
39918;SDS011;25589;51.552;13.424;2023-07-13T03:51:18;3.78;;;2.42;;
39918;SDS011;25589;51.552;13.424;2023-07-13T03:53:44;4.05;;;2.70;;
39918;SDS011;25589;51.552;13.424;2023-07-13T03:56:13;4.75;;;3.00;;
39918;SDS011;25589;51.552;13.424;2023-07-13T03:58:41;5.20;;;3.10;;
39918;SDS011;25589;51.552;13.424;2023-07-13T04:01:14;4.53;;;3.13;;
39918;SDS011;25589;51.552;13.424;2023-07-13T04:03:41;4.18;;;3.42;;
39918;SDS011;25589;51.552;13.424;2023-07-13T04:06:07;3.22;;;2.92;;
39918;SDS011;25589;51.552;13.424;2023-07-13T04:08:40;4.55;;;3.17;;
39918;SDS011;25589;51.552;13.424;2023-07-13T04:11:06;4.63;;;3.15;;
39918;SDS011;25589;51.552;13.424;2023-07-13T04:13:32;5.65;;;3.45;;
39918;SDS011;25589;51.552;13.424;2023-07-13T04:15:57;3.65;;;3.28;;
39918;SDS011;25589;51.552;13.424;2023-07-13T04:18:23;3.05;;;2.75;;
39918;SDS011;25589;51.552;13.424;2023-07-13T04:20:49;5.72;;;3.70;;
39918;SDS011;25589;51.552;13.424;2023-07-13T04:23:16;6.78;;;3.50;;
39918;SDS011;25589;51.552;13.424;2023-07-13T04:25:45;4.28;;;3.15;;
39918;SDS011;25589;51.552;13.424;2023-07-13T04:28:14;4.55;;;3.65;;
39918;SDS011;25589;51.552;13.424;2023-07-13T04:30:40;4.78;;;3.80;;
39918;SDS011;25589;51.552;13.424;2023-07-13T04:33:06;4.25;;;3.40;;
39918;SDS011;25589;51.552;13.424;2023-07-13T04:35:33;4.57;;;3.30;;
39918;SDS011;25589;51.552;13.424;2023-07-13T04:38:00;4.13;;;3.42;;
39918;SDS011;25589;51.552;13.424;2023-07-13T04:40:26;4.93;;;3.67;;
39918;SDS011;25589;51.552;13.424;2023-07-13T04:42:53;4.47;;;3.17;;
39918;SDS011;25589;51.552;13.424;2023-07-13T04:45:18;5.40;;;3.58;;
39918;SDS011;25589;51.552;13.424;2023-07-13T04:47:44;6.63;;;3.58;;
39918;SDS011;25589;51.552;13.424;2023-07-13T04:50:12;7.25;;;3.78;;
39918;SDS011;25589;51.552;13.424;2023-07-13T04:52:43;4.20;;;3.80;;
39918;SDS011;25589;51.552;13.424;2023-07-13T04:55:09;4.65;;;3.42;;
39918;SDS011;25589;51.552;13.424;2023-07-13T04:57:35;6.68;;;3.70;;
39918;SDS011;25589;51.552;13.424;2023-07-13T05:00:01;4.45;;;3.70;;
39918;SDS011;25589;51.552;13.424;2023-07-13T05:02:32;4.40;;;3.78;;
39918;SDS011;25589;51.552;13.424;2023-07-13T05:04:58;3.75;;;3.45;;
39918;SDS011;25589;51.552;13.424;2023-07-13T05:07:25;3.90;;;3.60;;
39918;SDS011;25589;51.552;13.424;2023-07-13T05:09:51;4.85;;;3.78;;
39918;SDS011;25589;51.552;13.424;2023-07-13T05:12:17;4.22;;;3.38;;
39918;SDS011;25589;51.552;13.424;2023-07-13T05:14:43;5.55;;;3.78;;
39918;SDS011;25589;51.552;13.424;2023-07-13T05:17:09;4.82;;;3.40;;
39918;SDS011;25589;51.552;13.424;2023-07-13T05:19:34;4.60;;;3.33;;
39918;SDS011;25589;51.552;13.424;2023-07-13T05:22:00;6.28;;;3.45;;
39918;SDS011;25589;51.552;13.424;2023-07-13T05:24:27;3.33;;;3.03;;
39918;SDS011;25589;51.552;13.424;2023-07-13T05:26:53;2.85;;;2.47;;
39918;SDS011;25589;51.552;13.424;2023-07-13T05:29:20;3.38;;;3.00;;
39918;SDS011;25589;51.552;13.424;2023-07-13T05:31:46;5.45;;;3.08;;
39918;SDS011;25589;51.552;13.424;2023-07-13T05:34:11;7.43;;;3.45;;
39918;SDS011;25589;51.552;13.424;2023-07-13T05:36:37;4.75;;;3.30;;
39918;SDS011;25589;51.552;13.424;2023-07-13T05:39:03;4.50;;;3.30;;
39918;SDS011;25589;51.552;13.424;2023-07-13T05:41:30;7.97;;;3.38;;
39918;SDS011;25589;51.552;13.424;2023-07-13T05:43:55;5.18;;;2.88;;
39918;SDS011;25589;51.552;13.424;2023-07-13T05:46:21;5.00;;;2.67;;
39918;SDS011;25589;51.552;13.424;2023-07-13T05:48:47;3.75;;;2.90;;
39918;SDS011;25589;51.552;13.424;2023-07-13T05:51:13;4.07;;;2.80;;
39918;SDS011;25589;51.552;13.424;2023-07-13T05:53:39;3.47;;;2.42;;
39918;SDS011;25589;51.552;13.424;2023-07-13T05:56:05;5.20;;;2.63;;
39918;SDS011;25589;51.552;13.424;2023-07-13T05:58:30;4.57;;;2.58;;
39918;SDS011;25589;51.552;13.424;2023-07-13T06:01:00;3.08;;;2.20;;
39918;SDS011;25589;51.552;13.424;2023-07-13T06:03:31;5.47;;;1.88;;
39918;SDS011;25589;51.552;13.424;2023-07-13T06:05:56;5.07;;;2.53;;
39918;SDS011;25589;51.552;13.424;2023-07-13T06:08:22;3.83;;;2.10;;
39918;SDS011;25589;51.552;13.424;2023-07-13T06:10:48;4.90;;;2.17;;
39918;SDS011;25589;51.552;13.424;2023-07-13T06:13:13;3.60;;;2.28;;
39918;SDS011;25589;51.552;13.424;2023-07-13T06:15:39;3.03;;;2.42;;
39918;SDS011;25589;51.552;13.424;2023-07-13T06:18:04;4.80;;;1.77;;
39918;SDS011;25589;51.552;13.424;2023-07-13T06:20:30;3.97;;;1.90;;
39918;SDS011;25589;51.552;13.424;2023-07-13T06:22:58;4.03;;;1.80;;
39918;SDS011;25589;51.552;13.424;2023-07-13T06:25:23;4.05;;;1.90;;
39918;SDS011;25589;51.552;13.424;2023-07-13T06:27:49;2.90;;;1.70;;
39918;SDS011;25589;51.552;13.424;2023-07-13T06:30:14;4.50;;;1.83;;
39918;SDS011;25589;51.552;13.424;2023-07-13T06:32:40;4.70;;;2.00;;
39918;SDS011;25589;51.552;13.424;2023-07-13T06:35:06;2.03;;;1.40;;
39918;SDS011;25589;51.552;13.424;2023-07-13T06:37:31;4.40;;;1.80;;
39918;SDS011;25589;51.552;13.424;2023-07-13T06:39:58;3.95;;;1.35;;
39918;SDS011;25589;51.552;13.424;2023-07-13T06:42:23;4.28;;;1.85;;
39918;SDS011;25589;51.552;13.424;2023-07-13T06:44:49;2.13;;;1.45;;
39918;SDS011;25589;51.552;13.424;2023-07-13T06:47:14;2.45;;;1.73;;
39918;SDS011;25589;51.552;13.424;2023-07-13T06:49:40;2.38;;;1.55;;
39918;SDS011;25589;51.552;13.424;2023-07-13T06:52:05;3.58;;;1.67;;
39918;SDS011;25589;51.552;13.424;2023-07-13T06:54:31;2.40;;;1.50;;
39918;SDS011;25589;51.552;13.424;2023-07-13T06:56:57;4.50;;;1.92;;
39918;SDS011;25589;51.552;13.424;2023-07-13T06:59:22;4.05;;;1.92;;
39918;SDS011;25589;51.552;13.424;2023-07-13T07:01:48;1.70;;;1.58;;
39918;SDS011;25589;51.552;13.424;2023-07-13T07:04:13;3.22;;;1.67;;
39918;SDS011;25589;51.552;13.424;2023-07-13T07:06:39;4.88;;;1.77;;
39918;SDS011;25589;51.552;13.424;2023-07-13T07:09:04;4.13;;;1.90;;
39918;SDS011;25589;51.552;13.424;2023-07-13T07:11:30;3.78;;;2.08;;
39918;SDS011;25589;51.552;13.424;2023-07-13T07:13:55;4.03;;;2.20;;
39918;SDS011;25589;51.552;13.424;2023-07-13T07:16:21;7.40;;;2.35;;
39918;SDS011;25589;51.552;13.424;2023-07-13T07:18:46;4.97;;;2.33;;
39918;SDS011;25589;51.552;13.424;2023-07-13T07:21:13;4.07;;;1.85;;
39918;SDS011;25589;51.552;13.424;2023-07-13T07:23:38;2.17;;;2.03;;
39918;SDS011;25589;51.552;13.424;2023-07-13T07:26:04;5.32;;;2.20;;
39918;SDS011;25589;51.552;13.424;2023-07-13T07:28:30;3.33;;;1.83;;
39918;SDS011;25589;51.552;13.424;2023-07-13T07:30:56;5.47;;;2.15;;
39918;SDS011;25589;51.552;13.424;2023-07-13T07:33:23;4.90;;;1.80;;
39918;SDS011;25589;51.552;13.424;2023-07-13T07:35:49;7.05;;;2.05;;
39918;SDS011;25589;51.552;13.424;2023-07-13T07:38:15;3.60;;;1.70;;
39918;SDS011;25589;51.552;13.424;2023-07-13T07:40:41;3.17;;;2.00;;
39918;SDS011;25589;51.552;13.424;2023-07-13T07:43:07;3.65;;;1.70;;
39918;SDS011;25589;51.552;13.424;2023-07-13T07:45:34;3.67;;;1.73;;
39918;SDS011;25589;51.552;13.424;2023-07-13T07:48:00;3.60;;;1.50;;
39918;SDS011;25589;51.552;13.424;2023-07-13T07:50:26;2.45;;;1.35;;
39918;SDS011;25589;51.552;13.424;2023-07-13T07:52:52;3.08;;;1.63;;
39918;SDS011;25589;51.552;13.424;2023-07-13T07:55:18;2.97;;;1.63;;
39918;SDS011;25589;51.552;13.424;2023-07-13T07:57:43;4.15;;;1.73;;
39918;SDS011;25589;51.552;13.424;2023-07-13T08:00:09;5.20;;;1.90;;
39918;SDS011;25589;51.552;13.424;2023-07-13T08:02:41;3.53;;;1.70;;
39918;SDS011;25589;51.552;13.424;2023-07-13T08:05:07;1.48;;;1.35;;
39918;SDS011;25589;51.552;13.424;2023-07-13T08:07:33;5.45;;;1.67;;
39918;SDS011;25589;51.552;13.424;2023-07-13T08:09:59;2.45;;;1.63;;
39918;SDS011;25589;51.552;13.424;2023-07-13T08:12:24;3.10;;;1.77;;
39918;SDS011;25589;51.552;13.424;2023-07-13T08:14:50;2.50;;;1.80;;
39918;SDS011;25589;51.552;13.424;2023-07-13T08:17:19;3.28;;;1.73;;
39918;SDS011;25589;51.552;13.424;2023-07-13T08:19:45;3.00;;;1.60;;
39918;SDS011;25589;51.552;13.424;2023-07-13T08:22:11;4.13;;;1.70;;
39918;SDS011;25589;51.552;13.424;2023-07-13T08:24:36;4.75;;;2.33;;
39918;SDS011;25589;51.552;13.424;2023-07-13T08:27:02;3.30;;;1.63;;
39918;SDS011;25589;51.552;13.424;2023-07-13T08:29:28;5.00;;;2.35;;
39918;SDS011;25589;51.552;13.424;2023-07-13T08:31:53;1.60;;;1.48;;
39918;SDS011;25589;51.552;13.424;2023-07-13T08:34:19;2.75;;;1.58;;
39918;SDS011;25589;51.552;13.424;2023-07-13T08:36:45;3.17;;;1.75;;
39918;SDS011;25589;51.552;13.424;2023-07-13T08:39:11;1.83;;;1.60;;
39918;SDS011;25589;51.552;13.424;2023-07-13T08:41:36;4.22;;;1.80;;
39918;SDS011;25589;51.552;13.424;2023-07-13T08:44:03;2.10;;;1.40;;
39918;SDS011;25589;51.552;13.424;2023-07-13T08:46:36;3.83;;;1.70;;
39918;SDS011;25589;51.552;13.424;2023-07-13T08:49:10;5.65;;;1.90;;
39918;SDS011;25589;51.552;13.424;2023-07-13T08:54:28;3.30;;;1.63;;
39918;SDS011;25589;51.552;13.424;2023-07-13T08:57:00;3.97;;;1.77;;
39918;SDS011;25589;51.552;13.424;2023-07-13T08:59:37;2.90;;;1.63;;
39918;SDS011;25589;51.552;13.424;2023-07-13T09:04:54;3.60;;;1.80;;
39918;SDS011;25589;51.552;13.424;2023-07-13T09:15:23;4.60;;;1.77;;
39918;SDS011;25589;51.552;13.424;2023-07-13T09:17:50;7.68;;;1.83;;
39918;SDS011;25589;51.552;13.424;2023-07-13T09:20:25;5.60;;;1.67;;
39918;SDS011;25589;51.552;13.424;2023-07-13T09:23:01;2.35;;;1.50;;
39918;SDS011;25589;51.552;13.424;2023-07-13T09:25:31;3.83;;;1.20;;
39918;SDS011;25589;51.552;13.424;2023-07-13T09:28:11;2.80;;;1.33;;
39918;SDS011;25589;51.552;13.424;2023-07-13T09:30:46;3.67;;;1.50;;
39918;SDS011;25589;51.552;13.424;2023-07-13T09:33:21;3.92;;;1.67;;
39918;SDS011;25589;51.552;13.424;2023-07-13T09:35:48;3.42;;;1.73;;
39918;SDS011;25589;51.552;13.424;2023-07-13T09:38:15;2.38;;;1.40;;
39918;SDS011;25589;51.552;13.424;2023-07-13T09:41:05;3.85;;;1.63;;
39918;SDS011;25589;51.552;13.424;2023-07-13T09:43:34;6.90;;;1.55;;
39918;SDS011;25589;51.552;13.424;2023-07-13T09:45:59;3.50;;;1.40;;
39918;SDS011;25589;51.552;13.424;2023-07-13T09:48:26;4.82;;;1.58;;
39918;SDS011;25589;51.552;13.424;2023-07-13T09:51:06;3.63;;;1.50;;
39918;SDS011;25589;51.552;13.424;2023-07-13T09:53:38;1.55;;;1.40;;
39918;SDS011;25589;51.552;13.424;2023-07-13T09:56:29;1.90;;;1.13;;
39918;SDS011;25589;51.552;13.424;2023-07-13T09:58:55;2.40;;;1.27;;
39918;SDS011;25589;51.552;13.424;2023-07-13T10:01:37;3.40;;;1.83;;
39918;SDS011;25589;51.552;13.424;2023-07-13T10:04:12;6.28;;;1.30;;
39918;SDS011;25589;51.552;13.424;2023-07-13T10:06:41;2.58;;;1.63;;
39918;SDS011;25589;51.552;13.424;2023-07-13T10:09:08;2.92;;;1.40;;
39918;SDS011;25589;51.552;13.424;2023-07-13T10:11:35;3.08;;;1.83;;
39918;SDS011;25589;51.552;13.424;2023-07-13T10:14:16;4.57;;;1.70;;
39918;SDS011;25589;51.552;13.424;2023-07-13T10:16:46;3.55;;;1.83;;
39918;SDS011;25589;51.552;13.424;2023-07-13T10:21:47;1.90;;;1.35;;
39918;SDS011;25589;51.552;13.424;2023-07-13T10:24:24;3.20;;;1.73;;
39918;SDS011;25589;51.552;13.424;2023-07-13T10:27:01;4.88;;;1.92;;
39918;SDS011;25589;51.552;13.424;2023-07-13T10:29:29;5.47;;;1.50;;
39918;SDS011;25589;51.552;13.424;2023-07-13T10:32:00;3.53;;;1.52;;
39918;SDS011;25589;51.552;13.424;2023-07-13T10:34:26;2.95;;;1.33;;
39918;SDS011;25589;51.552;13.424;2023-07-13T10:36:52;3.08;;;1.38;;
39918;SDS011;25589;51.552;13.424;2023-07-13T10:39:20;2.72;;;1.33;;
39918;SDS011;25589;51.552;13.424;2023-07-13T10:41:55;4.05;;;1.50;;
39918;SDS011;25589;51.552;13.424;2023-07-13T10:44:29;1.85;;;1.10;;
39918;SDS011;25589;51.552;13.424;2023-07-13T10:46:57;3.70;;;1.25;;
39918;SDS011;25589;51.552;13.424;2023-07-13T10:49:26;2.85;;;1.20;;
39918;SDS011;25589;51.552;13.424;2023-07-13T10:51:54;4.80;;;1.35;;
39918;SDS011;25589;51.552;13.424;2023-07-13T10:56:49;2.17;;;1.10;;
39918;SDS011;25589;51.552;13.424;2023-07-13T10:59:31;2.78;;;1.60;;
39918;SDS011;25589;51.552;13.424;2023-07-13T11:02:00;4.53;;;1.55;;
39918;SDS011;25589;51.552;13.424;2023-07-13T11:04:41;3.35;;;1.45;;
39918;SDS011;25589;51.552;13.424;2023-07-13T11:07:11;5.80;;;1.30;;
39918;SDS011;25589;51.552;13.424;2023-07-13T11:09:51;1.80;;;1.00;;
39918;SDS011;25589;51.552;13.424;2023-07-13T11:20:09;2.42;;;1.50;;
39918;SDS011;25589;51.552;13.424;2023-07-13T11:25:31;3.22;;;1.40;;
39918;SDS011;25589;51.552;13.424;2023-07-13T11:30:40;4.03;;;1.58;;
39918;SDS011;25589;51.552;13.424;2023-07-13T11:38:22;4.50;;;1.30;;
39918;SDS011;25589;51.552;13.424;2023-07-13T11:40:54;3.60;;;1.40;;
39918;SDS011;25589;51.552;13.424;2023-07-13T11:43:21;3.83;;;1.60;;
39918;SDS011;25589;51.552;13.424;2023-07-13T11:45:49;2.63;;;1.23;;
39918;SDS011;25589;51.552;13.424;2023-07-13T11:48:33;2.50;;;1.17;;
39918;SDS011;25589;51.552;13.424;2023-07-13T11:51:00;3.90;;;1.60;;
39918;SDS011;25589;51.552;13.424;2023-07-13T11:53:32;2.80;;;1.48;;
39918;SDS011;25589;51.552;13.424;2023-07-13T11:56:04;4.20;;;1.20;;
39918;SDS011;25589;51.552;13.424;2023-07-13T11:58:30;2.33;;;1.08;;
39918;SDS011;25589;51.552;13.424;2023-07-13T12:00:58;3.10;;;1.50;;
39918;SDS011;25589;51.552;13.424;2023-07-13T12:03:26;3.03;;;1.33;;
39918;SDS011;25589;51.552;13.424;2023-07-13T12:05:56;1.88;;;1.23;;
39918;SDS011;25589;51.552;13.424;2023-07-13T12:08:27;3.08;;;1.30;;
39918;SDS011;25589;51.552;13.424;2023-07-13T12:10:56;3.38;;;1.30;;
39918;SDS011;25589;51.552;13.424;2023-07-13T12:13:24;4.25;;;1.58;;
39918;SDS011;25589;51.552;13.424;2023-07-13T12:15:53;2.78;;;1.30;;
39918;SDS011;25589;51.552;13.424;2023-07-13T12:18:21;3.70;;;1.20;;
39918;SDS011;25589;51.552;13.424;2023-07-13T12:20:48;2.30;;;1.38;;
39918;SDS011;25589;51.552;13.424;2023-07-13T12:23:28;3.45;;;1.73;;
39918;SDS011;25589;51.552;13.424;2023-07-13T12:25:58;4.43;;;1.20;;
39918;SDS011;25589;51.552;13.424;2023-07-13T12:28:33;2.08;;;1.15;;
39918;SDS011;25589;51.552;13.424;2023-07-13T12:31:06;2.97;;;1.30;;
39918;SDS011;25589;51.552;13.424;2023-07-13T12:33:43;4.43;;;1.35;;
39918;SDS011;25589;51.552;13.424;2023-07-13T12:36:09;3.42;;;1.23;;
39918;SDS011;25589;51.552;13.424;2023-07-13T12:38:37;1.85;;;1.10;;
39918;SDS011;25589;51.552;13.424;2023-07-13T12:41:02;3.25;;;1.00;;
39918;SDS011;25589;51.552;13.424;2023-07-13T12:43:28;2.70;;;1.02;;
39918;SDS011;25589;51.552;13.424;2023-07-13T12:46:03;4.80;;;0.90;;
39918;SDS011;25589;51.552;13.424;2023-07-13T12:48:40;3.75;;;1.23;;
39918;SDS011;25589;51.552;13.424;2023-07-13T12:51:09;4.32;;;0.95;;
39918;SDS011;25589;51.552;13.424;2023-07-13T12:53:58;1.75;;;0.95;;
39918;SDS011;25589;51.552;13.424;2023-07-13T12:56:30;0.80;;;0.80;;
39918;SDS011;25589;51.552;13.424;2023-07-13T12:59:01;1.08;;;0.80;;
39918;SDS011;25589;51.552;13.424;2023-07-13T13:01:29;2.15;;;0.90;;
39918;SDS011;25589;51.552;13.424;2023-07-13T13:04:00;0.88;;;0.88;;
39918;SDS011;25589;51.552;13.424;2023-07-13T13:06:29;1.23;;;0.93;;
39918;SDS011;25589;51.552;13.424;2023-07-13T13:08:58;1.80;;;1.02;;
39918;SDS011;25589;51.552;13.424;2023-07-13T13:11:25;3.15;;;1.08;;
39918;SDS011;25589;51.552;13.424;2023-07-13T13:13:52;2.67;;;1.10;;
39918;SDS011;25589;51.552;13.424;2023-07-13T13:16:21;1.85;;;1.08;;
39918;SDS011;25589;51.552;13.424;2023-07-13T13:18:48;3.17;;;0.90;;
39918;SDS011;25589;51.552;13.424;2023-07-13T13:21:16;3.13;;;1.00;;
39918;SDS011;25589;51.552;13.424;2023-07-13T13:23:43;3.40;;;1.17;;
39918;SDS011;25589;51.552;13.424;2023-07-13T13:26:13;3.15;;;1.15;;
39918;SDS011;25589;51.552;13.424;2023-07-13T13:28:42;2.95;;;1.00;;
39918;SDS011;25589;51.552;13.424;2023-07-13T13:31:12;1.75;;;1.10;;
39918;SDS011;25589;51.552;13.424;2023-07-13T13:33:43;1.17;;;1.08;;
39918;SDS011;25589;51.552;13.424;2023-07-13T13:36:17;3.75;;;1.02;;
39918;SDS011;25589;51.552;13.424;2023-07-13T13:38:44;1.88;;;1.13;;
39918;SDS011;25589;51.552;13.424;2023-07-13T13:41:11;2.38;;;0.90;;
39918;SDS011;25589;51.552;13.424;2023-07-13T13:43:38;3.45;;;1.20;;
39918;SDS011;25589;51.552;13.424;2023-07-13T13:46:09;2.50;;;1.30;;
39918;SDS011;25589;51.552;13.424;2023-07-13T13:48:39;1.13;;;0.82;;
39918;SDS011;25589;51.552;13.424;2023-07-13T13:51:12;1.17;;;0.93;;
39918;SDS011;25589;51.552;13.424;2023-07-13T13:53:45;1.92;;;1.25;;
39918;SDS011;25589;51.552;13.424;2023-07-13T13:56:12;1.20;;;1.10;;
39918;SDS011;25589;51.552;13.424;2023-07-13T13:58:38;1.38;;;1.05;;
39918;SDS011;25589;51.552;13.424;2023-07-13T14:01:04;2.65;;;1.02;;
39918;SDS011;25589;51.552;13.424;2023-07-13T14:03:33;2.75;;;1.00;;
39918;SDS011;25589;51.552;13.424;2023-07-13T14:05:59;4.03;;;1.00;;
39918;SDS011;25589;51.552;13.424;2023-07-13T14:08:25;1.98;;;1.08;;
39918;SDS011;25589;51.552;13.424;2023-07-13T14:10:51;2.67;;;0.90;;
39918;SDS011;25589;51.552;13.424;2023-07-13T14:13:21;3.40;;;1.30;;
39918;SDS011;25589;51.552;13.424;2023-07-13T14:15:51;1.63;;;0.80;;
39918;SDS011;25589;51.552;13.424;2023-07-13T14:18:18;2.53;;;0.90;;
39918;SDS011;25589;51.552;13.424;2023-07-13T14:20:47;2.75;;;1.17;;
39918;SDS011;25589;51.552;13.424;2023-07-13T14:23:14;2.65;;;0.90;;
39918;SDS011;25589;51.552;13.424;2023-07-13T14:25:50;2.08;;;1.05;;
39918;SDS011;25589;51.552;13.424;2023-07-13T14:28:18;1.00;;;0.90;;
39918;SDS011;25589;51.552;13.424;2023-07-13T14:30:47;1.75;;;1.02;;
39918;SDS011;25589;51.552;13.424;2023-07-13T14:33:13;3.40;;;1.17;;
39918;SDS011;25589;51.552;13.424;2023-07-13T14:35:39;4.72;;;1.13;;
39918;SDS011;25589;51.552;13.424;2023-07-13T14:38:04;1.65;;;0.90;;
39918;SDS011;25589;51.552;13.424;2023-07-13T14:40:33;0.85;;;0.80;;
39918;SDS011;25589;51.552;13.424;2023-07-13T14:42:59;1.55;;;1.00;;
39918;SDS011;25589;51.552;13.424;2023-07-13T14:45:25;1.20;;;1.00;;
39918;SDS011;25589;51.552;13.424;2023-07-13T14:47:51;2.28;;;0.93;;
39918;SDS011;25589;51.552;13.424;2023-07-13T14:50:18;3.00;;;1.10;;
39918;SDS011;25589;51.552;13.424;2023-07-13T14:52:46;1.05;;;0.80;;
39918;SDS011;25589;51.552;13.424;2023-07-13T14:55:13;2.25;;;1.10;;
39918;SDS011;25589;51.552;13.424;2023-07-13T14:57:41;1.35;;;1.00;;
39918;SDS011;25589;51.552;13.424;2023-07-13T15:00:12;0.95;;;0.70;;
39918;SDS011;25589;51.552;13.424;2023-07-13T15:02:40;2.00;;;1.05;;
39918;SDS011;25589;51.552;13.424;2023-07-13T15:05:14;3.20;;;0.93;;
39918;SDS011;25589;51.552;13.424;2023-07-13T15:07:41;1.33;;;1.10;;
39918;SDS011;25589;51.552;13.424;2023-07-13T15:10:17;2.30;;;0.70;;
39918;SDS011;25589;51.552;13.424;2023-07-13T15:12:47;1.08;;;0.80;;
39918;SDS011;25589;51.552;13.424;2023-07-13T15:15:13;1.45;;;0.77;;
39918;SDS011;25589;51.552;13.424;2023-07-13T15:17:42;1.45;;;0.80;;